sensor_id;sensor_type;location;lat;lon;timestamp;P1;durP1;ratioP1;P2;durP2;ratioP2
17239;SDS011;9943;54.378;18.604;2022-12-10T00:00:07;27.87;;;15.37;;
17239;SDS011;9943;54.378;18.604;2022-12-10T00:02:38;29.93;;;14.70;;
17239;SDS011;9943;54.378;18.604;2022-12-10T00:05:07;23.20;;;14.20;;
17239;SDS011;9943;54.378;18.604;2022-12-10T00:07:35;22.60;;;13.07;;
17239;SDS011;9943;54.378;18.604;2022-12-10T00:10:05;20.57;;;12.63;;
17239;SDS011;9943;54.378;18.604;2022-12-10T00:12:35;22.53;;;12.87;;
17239;SDS011;9943;54.378;18.604;2022-12-10T00:15:16;21.67;;;12.47;;
17239;SDS011;9943;54.378;18.604;2022-12-10T00:17:44;21.33;;;13.50;;
17239;SDS011;9943;54.378;18.604;2022-12-10T00:20:19;19.30;;;12.30;;
17239;SDS011;9943;54.378;18.604;2022-12-10T00:22:48;20.73;;;12.90;;
17239;SDS011;9943;54.378;18.604;2022-12-10T00:25:17;17.17;;;11.03;;
17239;SDS011;9943;54.378;18.604;2022-12-10T00:27:47;18.00;;;12.33;;
17239;SDS011;9943;54.378;18.604;2022-12-10T00:30:21;16.67;;;10.63;;
17239;SDS011;9943;54.378;18.604;2022-12-10T00:32:50;17.17;;;10.70;;
17239;SDS011;9943;54.378;18.604;2022-12-10T00:35:21;19.53;;;11.13;;
17239;SDS011;9943;54.378;18.604;2022-12-10T00:37:50;16.33;;;10.60;;
17239;SDS011;9943;54.378;18.604;2022-12-10T00:40:21;18.97;;;10.87;;
17239;SDS011;9943;54.378;18.604;2022-12-10T00:42:51;18.27;;;11.43;;
17239;SDS011;9943;54.378;18.604;2022-12-10T00:45:25;19.03;;;11.77;;
17239;SDS011;9943;54.378;18.604;2022-12-10T00:47:54;21.20;;;12.43;;
17239;SDS011;9943;54.378;18.604;2022-12-10T00:50:22;18.70;;;12.40;;
17239;SDS011;9943;54.378;18.604;2022-12-10T00:52:51;22.53;;;12.47;;
17239;SDS011;9943;54.378;18.604;2022-12-10T00:55:19;24.93;;;13.00;;
17239;SDS011;9943;54.378;18.604;2022-12-10T00:57:51;18.57;;;11.20;;
17239;SDS011;9943;54.378;18.604;2022-12-10T01:00:22;14.93;;;9.83;;
17239;SDS011;9943;54.378;18.604;2022-12-10T01:02:55;19.30;;;10.17;;
17239;SDS011;9943;54.378;18.604;2022-12-10T01:05:26;14.07;;;7.73;;
17239;SDS011;9943;54.378;18.604;2022-12-10T01:07:55;15.87;;;9.20;;
17239;SDS011;9943;54.378;18.604;2022-12-10T01:10:25;13.73;;;8.37;;
17239;SDS011;9943;54.378;18.604;2022-12-10T01:12:56;14.20;;;8.47;;
17239;SDS011;9943;54.378;18.604;2022-12-10T01:15:33;14.50;;;8.07;;
17239;SDS011;9943;54.378;18.604;2022-12-10T01:18:05;14.60;;;8.73;;
17239;SDS011;9943;54.378;18.604;2022-12-10T01:20:34;13.07;;;8.27;;
17239;SDS011;9943;54.378;18.604;2022-12-10T01:23:04;13.80;;;7.73;;
17239;SDS011;9943;54.378;18.604;2022-12-10T01:25:35;12.77;;;8.30;;
17239;SDS011;9943;54.378;18.604;2022-12-10T01:28:06;11.97;;;8.03;;
17239;SDS011;9943;54.378;18.604;2022-12-10T01:30:38;14.07;;;9.07;;
17239;SDS011;9943;54.378;18.604;2022-12-10T01:33:09;14.77;;;9.30;;
17239;SDS011;9943;54.378;18.604;2022-12-10T01:35:39;16.83;;;9.50;;
17239;SDS011;9943;54.378;18.604;2022-12-10T01:38:08;16.10;;;9.60;;
17239;SDS011;9943;54.378;18.604;2022-12-10T01:40:37;15.33;;;9.80;;
17239;SDS011;9943;54.378;18.604;2022-12-10T01:43:09;14.40;;;8.80;;
17239;SDS011;9943;54.378;18.604;2022-12-10T01:45:42;9.70;;;6.87;;
17239;SDS011;9943;54.378;18.604;2022-12-10T01:48:12;14.00;;;8.80;;
17239;SDS011;9943;54.378;18.604;2022-12-10T01:50:40;15.07;;;9.43;;
17239;SDS011;9943;54.378;18.604;2022-12-10T01:53:09;10.83;;;7.40;;
17239;SDS011;9943;54.378;18.604;2022-12-10T01:55:40;12.50;;;7.87;;
17239;SDS011;9943;54.378;18.604;2022-12-10T01:58:11;15.30;;;9.27;;
17239;SDS011;9943;54.378;18.604;2022-12-10T02:00:46;13.80;;;9.17;;
17239;SDS011;9943;54.378;18.604;2022-12-10T02:03:24;14.07;;;8.40;;
17239;SDS011;9943;54.378;18.604;2022-12-10T02:06:01;20.87;;;12.37;;
17239;SDS011;9943;54.378;18.604;2022-12-10T02:08:40;19.33;;;9.97;;
17239;SDS011;9943;54.378;18.604;2022-12-10T02:11:14;13.20;;;8.50;;
17239;SDS011;9943;54.378;18.604;2022-12-10T02:13:48;14.87;;;9.13;;
17239;SDS011;9943;54.378;18.604;2022-12-10T02:16:26;15.13;;;8.83;;
17239;SDS011;9943;54.378;18.604;2022-12-10T02:19:02;19.00;;;9.40;;
17239;SDS011;9943;54.378;18.604;2022-12-10T02:21:41;16.20;;;9.60;;
17239;SDS011;9943;54.378;18.604;2022-12-10T02:24:14;15.63;;;9.13;;
17239;SDS011;9943;54.378;18.604;2022-12-10T02:26:51;17.00;;;9.93;;
17239;SDS011;9943;54.378;18.604;2022-12-10T02:29:32;14.97;;;8.80;;
17239;SDS011;9943;54.378;18.604;2022-12-10T02:32:07;12.83;;;8.50;;
17239;SDS011;9943;54.378;18.604;2022-12-10T02:34:43;13.60;;;9.07;;
17239;SDS011;9943;54.378;18.604;2022-12-10T02:37:16;12.40;;;8.00;;
17239;SDS011;9943;54.378;18.604;2022-12-10T02:39:50;14.63;;;8.47;;
17239;SDS011;9943;54.378;18.604;2022-12-10T02:42:24;10.13;;;7.33;;
17239;SDS011;9943;54.378;18.604;2022-12-10T02:44:58;11.27;;;7.03;;
17239;SDS011;9943;54.378;18.604;2022-12-10T02:47:29;13.37;;;6.90;;
17239;SDS011;9943;54.378;18.604;2022-12-10T02:50:03;10.70;;;6.77;;
17239;SDS011;9943;54.378;18.604;2022-12-10T02:52:34;12.07;;;7.87;;
17239;SDS011;9943;54.378;18.604;2022-12-10T02:55:04;15.47;;;7.80;;
17239;SDS011;9943;54.378;18.604;2022-12-10T02:57:36;9.57;;;6.60;;
17239;SDS011;9943;54.378;18.604;2022-12-10T03:00:12;9.10;;;6.10;;
17239;SDS011;9943;54.378;18.604;2022-12-10T03:03:06;11.60;;;6.70;;
17239;SDS011;9943;54.378;18.604;2022-12-10T03:05:52;13.07;;;8.10;;
17239;SDS011;9943;54.378;18.604;2022-12-10T03:08:28;10.77;;;7.23;;
17239;SDS011;9943;54.378;18.604;2022-12-10T03:11:04;12.97;;;7.97;;
17239;SDS011;9943;54.378;18.604;2022-12-10T03:13:41;14.40;;;8.80;;
17239;SDS011;9943;54.378;18.604;2022-12-10T03:16:19;12.33;;;8.03;;
17239;SDS011;9943;54.378;18.604;2022-12-10T03:18:50;11.77;;;7.77;;
17239;SDS011;9943;54.378;18.604;2022-12-10T03:21:24;11.87;;;7.93;;
17239;SDS011;9943;54.378;18.604;2022-12-10T03:23:55;14.20;;;7.93;;
17239;SDS011;9943;54.378;18.604;2022-12-10T03:26:24;11.77;;;7.37;;
17239;SDS011;9943;54.378;18.604;2022-12-10T03:28:55;12.63;;;7.30;;
17239;SDS011;9943;54.378;18.604;2022-12-10T03:31:30;10.67;;;6.83;;
17239;SDS011;9943;54.378;18.604;2022-12-10T03:34:00;12.87;;;7.70;;
17239;SDS011;9943;54.378;18.604;2022-12-10T03:36:30;16.00;;;9.23;;
17239;SDS011;9943;54.378;18.604;2022-12-10T03:39:00;13.37;;;8.93;;
17239;SDS011;9943;54.378;18.604;2022-12-10T03:41:29;15.17;;;8.70;;
17239;SDS011;9943;54.378;18.604;2022-12-10T03:44:00;15.67;;;8.87;;
17239;SDS011;9943;54.378;18.604;2022-12-10T03:46:30;13.70;;;8.07;;
17239;SDS011;9943;54.378;18.604;2022-12-10T03:48:59;16.07;;;9.53;;
17239;SDS011;9943;54.378;18.604;2022-12-10T03:51:30;13.37;;;7.90;;
17239;SDS011;9943;54.378;18.604;2022-12-10T03:53:59;14.43;;;9.13;;
17239;SDS011;9943;54.378;18.604;2022-12-10T03:56:29;13.70;;;9.00;;
17239;SDS011;9943;54.378;18.604;2022-12-10T03:58:57;15.47;;;9.77;;
17239;SDS011;9943;54.378;18.604;2022-12-10T04:01:26;11.50;;;7.63;;
17239;SDS011;9943;54.378;18.604;2022-12-10T04:03:57;12.07;;;7.90;;
17239;SDS011;9943;54.378;18.604;2022-12-10T04:06:26;15.00;;;8.60;;
17239;SDS011;9943;54.378;18.604;2022-12-10T04:08:58;14.00;;;8.57;;
17239;SDS011;9943;54.378;18.604;2022-12-10T04:11:27;12.50;;;8.33;;
17239;SDS011;9943;54.378;18.604;2022-12-10T04:13:55;16.50;;;10.07;;
17239;SDS011;9943;54.378;18.604;2022-12-10T04:16:41;14.40;;;9.70;;
17239;SDS011;9943;54.378;18.604;2022-12-10T04:19:15;16.07;;;9.27;;
17239;SDS011;9943;54.378;18.604;2022-12-10T04:21:45;14.70;;;9.23;;
17239;SDS011;9943;54.378;18.604;2022-12-10T04:24:34;14.53;;;9.00;;
17239;SDS011;9943;54.378;18.604;2022-12-10T04:27:23;13.63;;;9.00;;
17239;SDS011;9943;54.378;18.604;2022-12-10T04:29:53;16.37;;;9.63;;
17239;SDS011;9943;54.378;18.604;2022-12-10T04:32:25;16.97;;;10.63;;
17239;SDS011;9943;54.378;18.604;2022-12-10T04:34:56;13.23;;;9.50;;
17239;SDS011;9943;54.378;18.604;2022-12-10T04:37:27;16.03;;;9.47;;
17239;SDS011;9943;54.378;18.604;2022-12-10T04:39:59;14.60;;;9.47;;
17239;SDS011;9943;54.378;18.604;2022-12-10T04:42:28;15.47;;;10.17;;
17239;SDS011;9943;54.378;18.604;2022-12-10T04:44:57;15.37;;;9.63;;
17239;SDS011;9943;54.378;18.604;2022-12-10T04:47:27;18.70;;;10.53;;
17239;SDS011;9943;54.378;18.604;2022-12-10T04:49:57;16.63;;;10.40;;
17239;SDS011;9943;54.378;18.604;2022-12-10T04:52:25;17.07;;;9.93;;
17239;SDS011;9943;54.378;18.604;2022-12-10T04:54:54;15.17;;;9.53;;
17239;SDS011;9943;54.378;18.604;2022-12-10T04:57:23;16.47;;;9.83;;
17239;SDS011;9943;54.378;18.604;2022-12-10T04:59:55;16.53;;;9.00;;
17239;SDS011;9943;54.378;18.604;2022-12-10T05:02:23;17.90;;;9.50;;
17239;SDS011;9943;54.378;18.604;2022-12-10T05:04:52;16.77;;;10.40;;
17239;SDS011;9943;54.378;18.604;2022-12-10T05:07:21;15.07;;;10.13;;
17239;SDS011;9943;54.378;18.604;2022-12-10T05:09:50;16.17;;;10.00;;
17239;SDS011;9943;54.378;18.604;2022-12-10T05:12:21;17.40;;;9.83;;
17239;SDS011;9943;54.378;18.604;2022-12-10T05:14:50;15.60;;;9.13;;
17239;SDS011;9943;54.378;18.604;2022-12-10T05:17:19;19.03;;;10.03;;
17239;SDS011;9943;54.378;18.604;2022-12-10T05:19:47;16.43;;;9.67;;
17239;SDS011;9943;54.378;18.604;2022-12-10T05:22:16;17.57;;;9.97;;
17239;SDS011;9943;54.378;18.604;2022-12-10T05:25:04;14.90;;;8.90;;
17239;SDS011;9943;54.378;18.604;2022-12-10T05:27:33;17.00;;;9.83;;
17239;SDS011;9943;54.378;18.604;2022-12-10T05:30:04;15.97;;;9.03;;
17239;SDS011;9943;54.378;18.604;2022-12-10T05:32:33;13.77;;;9.47;;
17239;SDS011;9943;54.378;18.604;2022-12-10T05:35:02;13.83;;;9.17;;
17239;SDS011;9943;54.378;18.604;2022-12-10T05:37:31;15.57;;;9.37;;
17239;SDS011;9943;54.378;18.604;2022-12-10T05:40:05;14.67;;;8.30;;
17239;SDS011;9943;54.378;18.604;2022-12-10T05:42:34;15.23;;;9.17;;
17239;SDS011;9943;54.378;18.604;2022-12-10T05:45:04;14.10;;;8.67;;
17239;SDS011;9943;54.378;18.604;2022-12-10T05:47:34;13.43;;;8.57;;
17239;SDS011;9943;54.378;18.604;2022-12-10T05:50:05;11.80;;;8.30;;
17239;SDS011;9943;54.378;18.604;2022-12-10T05:52:36;14.03;;;7.93;;
17239;SDS011;9943;54.378;18.604;2022-12-10T05:55:07;13.53;;;8.63;;
17239;SDS011;9943;54.378;18.604;2022-12-10T05:57:37;14.83;;;8.87;;
17239;SDS011;9943;54.378;18.604;2022-12-10T06:00:09;16.83;;;9.70;;
17239;SDS011;9943;54.378;18.604;2022-12-10T06:02:39;16.13;;;9.87;;
17239;SDS011;9943;54.378;18.604;2022-12-10T06:05:09;15.13;;;9.23;;
17239;SDS011;9943;54.378;18.604;2022-12-10T06:07:37;14.03;;;9.20;;
17239;SDS011;9943;54.378;18.604;2022-12-10T06:10:07;16.40;;;10.17;;
17239;SDS011;9943;54.378;18.604;2022-12-10T06:12:37;13.83;;;9.27;;
17239;SDS011;9943;54.378;18.604;2022-12-10T06:15:06;13.50;;;8.83;;
17239;SDS011;9943;54.378;18.604;2022-12-10T06:17:35;12.97;;;8.67;;
17239;SDS011;9943;54.378;18.604;2022-12-10T06:20:04;15.50;;;9.67;;
17239;SDS011;9943;54.378;18.604;2022-12-10T06:22:33;13.03;;;8.80;;
17239;SDS011;9943;54.378;18.604;2022-12-10T06:25:02;16.30;;;9.80;;
17239;SDS011;9943;54.378;18.604;2022-12-10T06:27:32;14.63;;;9.43;;
17239;SDS011;9943;54.378;18.604;2022-12-10T06:30:01;15.33;;;9.17;;
17239;SDS011;9943;54.378;18.604;2022-12-10T06:32:30;15.27;;;9.57;;
17239;SDS011;9943;54.378;18.604;2022-12-10T06:35:00;16.57;;;9.20;;
17239;SDS011;9943;54.378;18.604;2022-12-10T06:37:29;14.80;;;9.47;;
17239;SDS011;9943;54.378;18.604;2022-12-10T06:39:58;14.60;;;8.43;;
17239;SDS011;9943;54.378;18.604;2022-12-10T06:42:28;17.87;;;9.00;;
17239;SDS011;9943;54.378;18.604;2022-12-10T06:44:59;14.77;;;8.87;;
17239;SDS011;9943;54.378;18.604;2022-12-10T06:47:28;14.93;;;8.53;;
17239;SDS011;9943;54.378;18.604;2022-12-10T06:49:56;16.53;;;9.57;;
17239;SDS011;9943;54.378;18.604;2022-12-10T06:52:24;13.87;;;8.93;;
17239;SDS011;9943;54.378;18.604;2022-12-10T06:54:54;14.63;;;8.90;;
17239;SDS011;9943;54.378;18.604;2022-12-10T06:57:23;18.17;;;10.50;;
17239;SDS011;9943;54.378;18.604;2022-12-10T06:59:52;18.87;;;10.53;;
17239;SDS011;9943;54.378;18.604;2022-12-10T07:02:22;15.47;;;10.17;;
17239;SDS011;9943;54.378;18.604;2022-12-10T07:04:50;19.60;;;10.87;;
17239;SDS011;9943;54.378;18.604;2022-12-10T07:07:18;16.07;;;9.43;;
17239;SDS011;9943;54.378;18.604;2022-12-10T07:09:50;17.10;;;9.40;;
17239;SDS011;9943;54.378;18.604;2022-12-10T07:12:21;18.47;;;10.87;;
17239;SDS011;9943;54.378;18.604;2022-12-10T07:14:50;15.00;;;9.23;;
17239;SDS011;9943;54.378;18.604;2022-12-10T07:17:19;17.90;;;10.43;;
17239;SDS011;9943;54.378;18.604;2022-12-10T07:19:54;15.03;;;9.73;;
17239;SDS011;9943;54.378;18.604;2022-12-10T07:22:23;16.90;;;9.97;;
17239;SDS011;9943;54.378;18.604;2022-12-10T07:24:55;17.23;;;10.37;;
17239;SDS011;9943;54.378;18.604;2022-12-10T07:27:23;18.27;;;10.73;;
17239;SDS011;9943;54.378;18.604;2022-12-10T07:29:56;18.30;;;10.10;;
17239;SDS011;9943;54.378;18.604;2022-12-10T07:32:24;15.67;;;10.40;;
17239;SDS011;9943;54.378;18.604;2022-12-10T07:34:55;20.47;;;10.17;;
17239;SDS011;9943;54.378;18.604;2022-12-10T07:37:24;16.53;;;10.23;;
17239;SDS011;9943;54.378;18.604;2022-12-10T07:39:52;20.53;;;10.03;;
17239;SDS011;9943;54.378;18.604;2022-12-10T07:42:22;20.37;;;11.57;;
17239;SDS011;9943;54.378;18.604;2022-12-10T07:44:51;17.40;;;10.63;;
17239;SDS011;9943;54.378;18.604;2022-12-10T07:47:19;16.73;;;10.63;;
17239;SDS011;9943;54.378;18.604;2022-12-10T07:49:47;17.80;;;10.77;;
17239;SDS011;9943;54.378;18.604;2022-12-10T07:52:17;16.03;;;10.33;;
17239;SDS011;9943;54.378;18.604;2022-12-10T07:54:46;18.00;;;10.70;;
17239;SDS011;9943;54.378;18.604;2022-12-10T07:57:15;19.37;;;11.10;;
17239;SDS011;9943;54.378;18.604;2022-12-10T07:59:45;20.30;;;11.67;;
17239;SDS011;9943;54.378;18.604;2022-12-10T08:02:17;18.50;;;11.57;;
17239;SDS011;9943;54.378;18.604;2022-12-10T08:04:46;19.67;;;10.70;;
17239;SDS011;9943;54.378;18.604;2022-12-10T08:07:18;17.93;;;11.10;;
17239;SDS011;9943;54.378;18.604;2022-12-10T08:09:47;16.77;;;11.23;;
17239;SDS011;9943;54.378;18.604;2022-12-10T08:12:16;18.33;;;11.60;;
17239;SDS011;9943;54.378;18.604;2022-12-10T08:14:47;18.50;;;10.70;;
17239;SDS011;9943;54.378;18.604;2022-12-10T08:17:17;15.93;;;10.47;;
17239;SDS011;9943;54.378;18.604;2022-12-10T08:19:48;21.50;;;13.43;;
17239;SDS011;9943;54.378;18.604;2022-12-10T08:22:22;18.77;;;11.93;;
17239;SDS011;9943;54.378;18.604;2022-12-10T08:24:50;18.47;;;10.93;;
17239;SDS011;9943;54.378;18.604;2022-12-10T08:27:18;17.30;;;11.27;;
17239;SDS011;9943;54.378;18.604;2022-12-10T08:29:47;19.40;;;11.23;;
17239;SDS011;9943;54.378;18.604;2022-12-10T08:32:16;18.83;;;11.07;;
17239;SDS011;9943;54.378;18.604;2022-12-10T08:34:45;17.43;;;11.57;;
17239;SDS011;9943;54.378;18.604;2022-12-10T08:37:15;18.60;;;11.20;;
17239;SDS011;9943;54.378;18.604;2022-12-10T08:39:45;17.47;;;11.87;;
17239;SDS011;9943;54.378;18.604;2022-12-10T08:42:14;16.57;;;10.73;;
17239;SDS011;9943;54.378;18.604;2022-12-10T08:44:44;15.73;;;11.30;;
17239;SDS011;9943;54.378;18.604;2022-12-10T08:47:17;19.93;;;11.90;;
17239;SDS011;9943;54.378;18.604;2022-12-10T08:49:45;17.77;;;11.07;;
17239;SDS011;9943;54.378;18.604;2022-12-10T08:52:13;18.77;;;11.83;;
17239;SDS011;9943;54.378;18.604;2022-12-10T08:54:43;17.20;;;11.23;;
17239;SDS011;9943;54.378;18.604;2022-12-10T08:57:16;20.73;;;11.47;;
17239;SDS011;9943;54.378;18.604;2022-12-10T08:59:47;17.03;;;11.00;;
17239;SDS011;9943;54.378;18.604;2022-12-10T09:02:15;23.10;;;12.37;;
17239;SDS011;9943;54.378;18.604;2022-12-10T09:04:44;18.97;;;12.23;;
17239;SDS011;9943;54.378;18.604;2022-12-10T09:07:12;20.37;;;12.80;;
17239;SDS011;9943;54.378;18.604;2022-12-10T09:09:41;19.63;;;11.83;;
17239;SDS011;9943;54.378;18.604;2022-12-10T09:12:10;19.80;;;11.80;;
17239;SDS011;9943;54.378;18.604;2022-12-10T09:14:41;21.60;;;12.27;;
17239;SDS011;9943;54.378;18.604;2022-12-10T09:17:10;21.73;;;13.20;;
17239;SDS011;9943;54.378;18.604;2022-12-10T09:19:39;21.43;;;12.37;;
17239;SDS011;9943;54.378;18.604;2022-12-10T09:22:09;19.17;;;11.00;;
17239;SDS011;9943;54.378;18.604;2022-12-10T09:24:38;21.57;;;12.93;;
17239;SDS011;9943;54.378;18.604;2022-12-10T09:27:23;21.13;;;12.67;;
17239;SDS011;9943;54.378;18.604;2022-12-10T09:29:55;20.43;;;12.37;;
17239;SDS011;9943;54.378;18.604;2022-12-10T09:32:27;19.83;;;13.17;;
17239;SDS011;9943;54.378;18.604;2022-12-10T09:34:57;21.00;;;13.03;;
17239;SDS011;9943;54.378;18.604;2022-12-10T09:37:27;20.97;;;12.97;;
17239;SDS011;9943;54.378;18.604;2022-12-10T09:39:55;22.73;;;13.30;;
17239;SDS011;9943;54.378;18.604;2022-12-10T09:42:28;18.27;;;11.90;;
17239;SDS011;9943;54.378;18.604;2022-12-10T09:45:11;18.17;;;11.07;;
17239;SDS011;9943;54.378;18.604;2022-12-10T09:47:46;22.53;;;12.80;;
17239;SDS011;9943;54.378;18.604;2022-12-10T09:50:26;21.97;;;12.73;;
17239;SDS011;9943;54.378;18.604;2022-12-10T09:53:00;18.57;;;12.37;;
17239;SDS011;9943;54.378;18.604;2022-12-10T09:55:32;18.77;;;12.17;;
17239;SDS011;9943;54.378;18.604;2022-12-10T09:58:05;18.87;;;11.87;;
17239;SDS011;9943;54.378;18.604;2022-12-10T10:00:44;18.40;;;11.67;;
17239;SDS011;9943;54.378;18.604;2022-12-10T10:03:15;18.53;;;11.83;;
17239;SDS011;9943;54.378;18.604;2022-12-10T10:05:47;20.60;;;12.03;;
17239;SDS011;9943;54.378;18.604;2022-12-10T10:08:20;21.03;;;12.77;;
17239;SDS011;9943;54.378;18.604;2022-12-10T10:10:53;21.63;;;12.23;;
17239;SDS011;9943;54.378;18.604;2022-12-10T10:13:27;19.30;;;12.60;;
17239;SDS011;9943;54.378;18.604;2022-12-10T10:16:09;21.10;;;12.27;;
17239;SDS011;9943;54.378;18.604;2022-12-10T10:18:52;14.25;;;10.43;;
17239;SDS011;9943;54.378;18.604;2022-12-10T10:21:26;21.05;;;12.85;;
17239;SDS011;9943;54.378;18.604;2022-12-10T10:23:57;21.02;;;13.88;;
17239;SDS011;9943;54.378;18.604;2022-12-10T10:26:27;21.48;;;13.98;;
17239;SDS011;9943;54.378;18.604;2022-12-10T10:28:57;17.88;;;12.07;;
17239;SDS011;9943;54.378;18.604;2022-12-10T10:31:30;17.98;;;12.25;;
17239;SDS011;9943;54.378;18.604;2022-12-10T10:34:04;18.85;;;12.25;;
17239;SDS011;9943;54.378;18.604;2022-12-10T10:36:35;19.48;;;12.55;;
17239;SDS011;9943;54.378;18.604;2022-12-10T10:39:09;17.67;;;12.38;;
17239;SDS011;9943;54.378;18.604;2022-12-10T10:41:45;20.63;;;13.53;;
17239;SDS011;9943;54.378;18.604;2022-12-10T10:44:19;18.50;;;12.40;;
17239;SDS011;9943;54.378;18.604;2022-12-10T10:46:54;18.33;;;12.65;;
17239;SDS011;9943;54.378;18.604;2022-12-10T10:49:27;18.37;;;12.43;;
17239;SDS011;9943;54.378;18.604;2022-12-10T10:51:59;22.13;;;13.77;;
17239;SDS011;9943;54.378;18.604;2022-12-10T10:54:33;19.60;;;12.83;;
17239;SDS011;9943;54.378;18.604;2022-12-10T10:57:22;18.70;;;13.00;;
17239;SDS011;9943;54.378;18.604;2022-12-10T10:59:56;17.33;;;11.87;;
17239;SDS011;9943;54.378;18.604;2022-12-10T11:02:35;22.87;;;14.07;;
17239;SDS011;9943;54.378;18.604;2022-12-10T11:05:15;21.23;;;14.10;;
17239;SDS011;9943;54.378;18.604;2022-12-10T11:07:51;18.63;;;12.47;;
17239;SDS011;9943;54.378;18.604;2022-12-10T11:10:27;19.63;;;12.37;;
17239;SDS011;9943;54.378;18.604;2022-12-10T11:12:57;17.60;;;11.50;;
17239;SDS011;9943;54.378;18.604;2022-12-10T11:15:32;19.23;;;12.53;;
17239;SDS011;9943;54.378;18.604;2022-12-10T11:18:09;16.07;;;11.67;;
17239;SDS011;9943;54.378;18.604;2022-12-10T11:20:58;17.77;;;11.63;;
17239;SDS011;9943;54.378;18.604;2022-12-10T11:23:30;23.87;;;14.07;;
17239;SDS011;9943;54.378;18.604;2022-12-10T11:26:12;16.60;;;11.27;;
17239;SDS011;9943;54.378;18.604;2022-12-10T11:28:58;20.40;;;13.23;;
17239;SDS011;9943;54.378;18.604;2022-12-10T11:31:39;22.07;;;13.77;;
17239;SDS011;9943;54.378;18.604;2022-12-10T11:34:26;19.83;;;13.40;;
17239;SDS011;9943;54.378;18.604;2022-12-10T11:37:08;19.20;;;12.63;;
17239;SDS011;9943;54.378;18.604;2022-12-10T11:39:53;21.03;;;13.60;;
17239;SDS011;9943;54.378;18.604;2022-12-10T11:42:34;21.53;;;13.03;;
17239;SDS011;9943;54.378;18.604;2022-12-10T11:45:14;19.77;;;12.53;;
17239;SDS011;9943;54.378;18.604;2022-12-10T11:47:51;18.93;;;12.17;;
17239;SDS011;9943;54.378;18.604;2022-12-10T11:50:36;21.87;;;12.93;;
17239;SDS011;9943;54.378;18.604;2022-12-10T11:53:12;21.10;;;13.33;;
17239;SDS011;9943;54.378;18.604;2022-12-10T11:55:52;15.00;;;10.90;;
17239;SDS011;9943;54.378;18.604;2022-12-10T11:58:32;16.97;;;11.03;;
17239;SDS011;9943;54.378;18.604;2022-12-10T12:01:11;13.30;;;9.60;;
17239;SDS011;9943;54.378;18.604;2022-12-10T12:03:51;15.20;;;9.70;;
17239;SDS011;9943;54.378;18.604;2022-12-10T12:09:40;14.50;;;8.90;;
17239;SDS011;9943;54.378;18.604;2022-12-10T12:12:21;15.33;;;9.63;;
17239;SDS011;9943;54.378;18.604;2022-12-10T12:14:58;18.10;;;10.50;;
17239;SDS011;9943;54.378;18.604;2022-12-10T12:17:32;16.07;;;10.83;;
17239;SDS011;9943;54.378;18.604;2022-12-10T12:20:04;16.67;;;10.60;;
17239;SDS011;9943;54.378;18.604;2022-12-10T12:22:45;16.90;;;10.10;;
17239;SDS011;9943;54.378;18.604;2022-12-10T12:25:23;18.17;;;11.17;;
17239;SDS011;9943;54.378;18.604;2022-12-10T12:27:57;17.30;;;10.03;;
17239;SDS011;9943;54.378;18.604;2022-12-10T12:30:32;18.70;;;11.40;;
17239;SDS011;9943;54.378;18.604;2022-12-10T12:33:04;18.23;;;11.50;;
17239;SDS011;9943;54.378;18.604;2022-12-10T12:35:38;15.90;;;10.20;;
17239;SDS011;9943;54.378;18.604;2022-12-10T12:38:19;17.53;;;11.57;;
17239;SDS011;9943;54.378;18.604;2022-12-10T12:40:56;19.07;;;11.20;;
17239;SDS011;9943;54.378;18.604;2022-12-10T12:43:34;15.67;;;10.27;;
17239;SDS011;9943;54.378;18.604;2022-12-10T12:46:12;18.93;;;10.17;;
17239;SDS011;9943;54.378;18.604;2022-12-10T12:48:49;15.93;;;10.47;;
17239;SDS011;9943;54.378;18.604;2022-12-10T12:51:22;15.43;;;9.80;;
17239;SDS011;9943;54.378;18.604;2022-12-10T12:53:54;17.13;;;10.47;;
17239;SDS011;9943;54.378;18.604;2022-12-10T12:56:27;17.43;;;10.97;;
17239;SDS011;9943;54.378;18.604;2022-12-10T12:59:11;15.50;;;10.00;;
17239;SDS011;9943;54.378;18.604;2022-12-10T13:01:47;18.30;;;10.77;;
17239;SDS011;9943;54.378;18.604;2022-12-10T13:04:22;17.67;;;11.30;;
17239;SDS011;9943;54.378;18.604;2022-12-10T13:10:17;17.07;;;10.93;;
17239;SDS011;9943;54.378;18.604;2022-12-10T13:13:07;22.10;;;12.00;;
17239;SDS011;9943;54.378;18.604;2022-12-10T13:15:45;17.47;;;10.30;;
17239;SDS011;9943;54.378;18.604;2022-12-10T13:18:20;18.50;;;10.30;;
17239;SDS011;9943;54.378;18.604;2022-12-10T13:24:06;16.10;;;10.43;;
17239;SDS011;9943;54.378;18.604;2022-12-10T13:26:36;16.87;;;11.17;;
17239;SDS011;9943;54.378;18.604;2022-12-10T13:29:19;20.53;;;13.20;;
17239;SDS011;9943;54.378;18.604;2022-12-10T13:32:14;25.43;;;15.37;;
17239;SDS011;9943;54.378;18.604;2022-12-10T13:34:44;28.27;;;17.57;;
17239;SDS011;9943;54.378;18.604;2022-12-10T13:37:15;33.77;;;17.87;;
17239;SDS011;9943;54.378;18.604;2022-12-10T13:39:48;29.90;;;17.67;;
17239;SDS011;9943;54.378;18.604;2022-12-10T13:42:32;34.73;;;20.57;;
17239;SDS011;9943;54.378;18.604;2022-12-10T13:45:31;44.13;;;24.67;;
17239;SDS011;9943;54.378;18.604;2022-12-10T13:48:18;47.23;;;24.83;;
17239;SDS011;9943;54.378;18.604;2022-12-10T13:51:04;38.73;;;21.83;;
17239;SDS011;9943;54.378;18.604;2022-12-10T13:54:08;37.50;;;19.97;;
17239;SDS011;9943;54.378;18.604;2022-12-10T13:56:52;39.57;;;22.50;;
17239;SDS011;9943;54.378;18.604;2022-12-10T13:59:30;36.30;;;22.23;;
17239;SDS011;9943;54.378;18.604;2022-12-10T14:02:17;35.03;;;21.73;;
17239;SDS011;9943;54.378;18.604;2022-12-10T14:05:07;32.13;;;20.30;;
17239;SDS011;9943;54.378;18.604;2022-12-10T14:07:47;29.87;;;18.30;;
17239;SDS011;9943;54.378;18.604;2022-12-10T14:10:30;33.93;;;18.03;;
17239;SDS011;9943;54.378;18.604;2022-12-10T14:13:04;32.07;;;18.90;;
17239;SDS011;9943;54.378;18.604;2022-12-10T14:15:37;39.63;;;22.60;;
17239;SDS011;9943;54.378;18.604;2022-12-10T14:18:11;38.43;;;23.30;;
17239;SDS011;9943;54.378;18.604;2022-12-10T14:20:42;36.33;;;21.63;;
17239;SDS011;9943;54.378;18.604;2022-12-10T14:23:22;37.23;;;20.63;;
17239;SDS011;9943;54.378;18.604;2022-12-10T14:26:03;36.37;;;22.27;;
17239;SDS011;9943;54.378;18.604;2022-12-10T14:28:36;41.27;;;22.13;;
17239;SDS011;9943;54.378;18.604;2022-12-10T14:31:13;37.27;;;20.87;;
17239;SDS011;9943;54.378;18.604;2022-12-10T14:33:49;35.33;;;20.97;;
17239;SDS011;9943;54.378;18.604;2022-12-10T14:36:21;37.40;;;20.50;;
17239;SDS011;9943;54.378;18.604;2022-12-10T14:38:56;38.07;;;21.47;;
17239;SDS011;9943;54.378;18.604;2022-12-10T14:41:28;41.90;;;22.27;;
17239;SDS011;9943;54.378;18.604;2022-12-10T14:44:01;41.43;;;23.40;;
17239;SDS011;9943;54.378;18.604;2022-12-10T14:46:32;39.73;;;23.27;;
17239;SDS011;9943;54.378;18.604;2022-12-10T14:49:01;40.57;;;22.70;;
17239;SDS011;9943;54.378;18.604;2022-12-10T14:51:33;40.03;;;22.00;;
17239;SDS011;9943;54.378;18.604;2022-12-10T14:54:04;37.70;;;21.63;;
17239;SDS011;9943;54.378;18.604;2022-12-10T14:56:54;39.27;;;21.33;;
17239;SDS011;9943;54.378;18.604;2022-12-10T14:59:23;45.57;;;24.67;;
17239;SDS011;9943;54.378;18.604;2022-12-10T15:01:57;51.97;;;27.20;;
17239;SDS011;9943;54.378;18.604;2022-12-10T15:04:46;47.13;;;26.97;;
17239;SDS011;9943;54.378;18.604;2022-12-10T15:07:18;45.97;;;25.80;;
17239;SDS011;9943;54.378;18.604;2022-12-10T15:09:53;50.67;;;26.80;;